TCX37BG EGGD-LGPZ
Flight info
| Callsign | TCX37BG |
|---|---|
| Flight time | 3h 2m |
| Altitude | 33000 |
| Route | HAWFA L607 KONAN DCT KOK DCT RITAX DCT BANUX DCT BABEG DCT KUMOM DCT GORPA DCT NIVES DCT NAVSU DCT TAZ DCT RODON DCT LIMJA DCT PITAS/N0402F230 N732 KRK M127 MALED |
| Aircraft | A321/M-SDE3FGHIRWY/LB1 |
Departure
| Time | 2026-04-25 08:18 |
|---|---|
| Airport | Bristol Airport (EGGD) |
Arrival
| Time | 2026-04-25 11:20 |
|---|---|
| Airport | Aktion National Airport (LGPZ) |
| Time | Latitude | Longitude | Altitude | Speed | Heading |
|---|---|---|---|---|---|
| 2026-04-25 07:51 | 51.38522 | -2.71015 | 612 ft | 0 kts | 356° |
| 2026-04-25 07:56 | 51.38521 | -2.71015 | 612 ft | 0 kts | 356° |
| 2026-04-25 08:10 | 51.38520 | -2.71015 | 611 ft | 2 kts | 356° |
| 2026-04-25 08:10 | 51.38496 | -2.71012 | 626 ft | 3 kts | 356° |
| 2026-04-25 08:10 | 51.38475 | -2.71007 | 627 ft | 4 kts | 325° |
| 2026-04-25 08:10 | 51.38464 | -2.70978 | 622 ft | 4 kts | 268° |
| 2026-04-25 08:11 | 51.38465 | -2.70953 | 619 ft | 0 kts | 266° |
| 2026-04-25 08:12 | 51.38464 | -2.70982 | 620 ft | 7 kts | 266° |
| 2026-04-25 08:13 | 51.38459 | -2.71107 | 615 ft | 14 kts | 266° |
| 2026-04-25 08:13 | 51.38453 | -2.71255 | 630 ft | 12 kts | 266° |
| 2026-04-25 08:13 | 51.38447 | -2.71403 | 613 ft | 17 kts | 266° |
| 2026-04-25 08:14 | 51.38431 | -2.71832 | 605 ft | 19 kts | 267° |
| 2026-04-25 08:14 | 51.38432 | -2.72035 | 605 ft | 18 kts | 268° |
| 2026-04-25 08:14 | 51.38425 | -2.72220 | 614 ft | 17 kts | 266° |
| 2026-04-25 08:14 | 51.38416 | -2.72444 | 612 ft | 24 kts | 266° |
| 2026-04-25 08:15 | 51.38404 | -2.72758 | 608 ft | 29 kts | 266° |
| 2026-04-25 08:15 | 51.38392 | -2.73046 | 604 ft | 24 kts | 266° |
| 2026-04-25 08:15 | 51.38373 | -2.73276 | 623 ft | 18 kts | 242° |
| 2026-04-25 08:15 | 51.38290 | -2.73342 | 618 ft | 11 kts | 178° |
| 2026-04-25 08:16 | 51.38225 | -2.73291 | 635 ft | 13 kts | 122° |
| 2026-04-25 08:16 | 51.38217 | -2.73205 | 624 ft | 0 kts | 87° |
| 2026-04-25 08:17 | 51.38219 | -2.73139 | 630 ft | 31 kts | 86° |
| 2026-04-25 08:17 | 51.38251 | -2.72340 | 626 ft | 110 kts | 86° |
| 2026-04-25 08:17 | 51.38311 | -2.70830 | 940 ft | 137 kts | 86° |
| 2026-04-25 08:18 | 51.38364 | -2.69302 | 1681 ft | 144 kts | 88° |
| 2026-04-25 08:18 | 51.38410 | -2.67614 | 2200 ft | 160 kts | 88° |
| 2026-04-25 08:18 | 51.38465 | -2.65751 | 2361 ft | 176 kts | 88° |
| 2026-04-25 08:18 | 51.38527 | -2.63717 | 2520 ft | 191 kts | 87° |
| 2026-04-25 08:19 | 51.38597 | -2.61484 | 2638 ft | 211 kts | 88° |
| 2026-04-25 08:19 | 51.38675 | -2.59054 | 2768 ft | 233 kts | 87° |
| 2026-04-25 08:19 | 51.38952 | -2.56388 | 2989 ft | 253 kts | 65° |
| 2026-04-25 08:19 | 51.40126 | -2.54267 | 3536 ft | 262 kts | 33° |
| 2026-04-25 08:20 | 51.41707 | -2.52775 | 4180 ft | 266 kts | 30° |
| 2026-04-25 08:20 | 51.43335 | -2.51313 | 4835 ft | 270 kts | 30° |
| 2026-04-25 08:20 | 51.44994 | -2.49839 | 5461 ft | 274 kts | 30° |
| 2026-04-25 08:20 | 51.46643 | -2.48277 | 6095 ft | 277 kts | 32° |
| 2026-04-25 08:21 | 51.48292 | -2.46646 | 6705 ft | 279 kts | 31° |
| 2026-04-25 08:21 | 51.49934 | -2.44959 | 7296 ft | 282 kts | 37° |
| 2026-04-25 08:21 | 51.51245 | -2.42618 | 7838 ft | 285 kts | 61° |
| 2026-04-25 08:21 | 51.51870 | -2.39605 | 8383 ft | 288 kts | 85° |
| 2026-04-25 08:22 | 51.51786 | -2.36389 | 8962 ft | 290 kts | 97° |
| 2026-04-25 08:22 | 51.51560 | -2.33161 | 9536 ft | 293 kts | 97° |
| 2026-04-25 08:22 | 51.51328 | -2.29892 | 10093 ft | 296 kts | 97° |
| 2026-04-25 08:22 | 51.51093 | -2.26571 | 10441 ft | 307 kts | 97° |
| 2026-04-25 08:23 | 51.50847 | -2.23074 | 10581 ft | 324 kts | 97° |
| 2026-04-25 08:23 | 51.50587 | -2.19388 | 10705 ft | 341 kts | 97° |
| 2026-04-25 08:23 | 51.50320 | -2.15566 | 10829 ft | 357 kts | 96° |
| 2026-04-25 08:23 | 51.50040 | -2.11511 | 10999 ft | 370 kts | 96° |
| 2026-04-25 08:24 | 51.49754 | -2.07372 | 11394 ft | 375 kts | 96° |
| 2026-04-25 08:24 | 51.49466 | -2.03198 | 11875 ft | 377 kts | 96° |
| 2026-04-25 08:24 | 51.49178 | -1.99060 | 12363 ft | 379 kts | 97° |
| 2026-04-25 08:24 | 51.48880 | -1.94851 | 12866 ft | 381 kts | 97° |
| 2026-04-25 08:25 | 51.48575 | -1.90612 | 13342 ft | 383 kts | 97° |
| 2026-04-25 08:25 | 51.48265 | -1.86346 | 13808 ft | 386 kts | 97° |
| 2026-04-25 08:25 | 51.47954 | -1.82055 | 14249 ft | 388 kts | 97° |
| 2026-04-25 08:25 | 51.47640 | -1.77742 | 14650 ft | 391 kts | 97° |
| 2026-04-25 08:26 | 51.47322 | -1.73416 | 15033 ft | 394 kts | 97° |
| 2026-04-25 08:26 | 51.47001 | -1.69042 | 15404 ft | 396 kts | 97° |
| 2026-04-25 08:26 | 51.46510 | -1.64686 | 15768 ft | 398 kts | 103° |
| 2026-04-25 08:26 | 51.45918 | -1.60336 | 16116 ft | 400 kts | 103° |
| 2026-04-25 08:27 | 51.45322 | -1.55977 | 16450 ft | 403 kts | 103° |
| 2026-04-25 08:27 | 51.44715 | -1.51562 | 16791 ft | 405 kts | 103° |
| 2026-04-25 08:27 | 51.44108 | -1.47164 | 17108 ft | 408 kts | 103° |
| 2026-04-25 08:27 | 51.43498 | -1.42758 | 17429 ft | 410 kts | 103° |
| 2026-04-25 08:28 | 51.42878 | -1.38287 | 17751 ft | 412 kts | 103° |
| 2026-04-25 08:28 | 51.42258 | -1.33793 | 18054 ft | 414 kts | 103° |
| 2026-04-25 08:28 | 51.41636 | -1.29279 | 18364 ft | 416 kts | 103° |
| 2026-04-25 08:28 | 51.41006 | -1.24748 | 18655 ft | 418 kts | 103° |
| 2026-04-25 08:29 | 51.40368 | -1.20179 | 18931 ft | 420 kts | 103° |
| 2026-04-25 08:29 | 51.39746 | -1.15598 | 19200 ft | 423 kts | 101° |
| 2026-04-25 08:29 | 51.39421 | -1.10911 | 19469 ft | 425 kts | 95° |
| 2026-04-25 08:29 | 51.39181 | -1.06188 | 19749 ft | 427 kts | 95° |
| 2026-04-25 08:30 | 51.38939 | -1.01437 | 20033 ft | 429 kts | 95° |
| 2026-04-25 08:30 | 51.38700 | -0.96660 | 20303 ft | 431 kts | 95° |
| 2026-04-25 08:30 | 51.38462 | -0.91930 | 20540 ft | 434 kts | 95° |
| 2026-04-25 08:30 | 51.38217 | -0.87100 | 20792 ft | 436 kts | 95° |
| 2026-04-25 08:31 | 51.37966 | -0.82252 | 21062 ft | 438 kts | 95° |
| 2026-04-25 08:31 | 51.37760 | -0.78396 | 21287 ft | 440 kts | 95° |
| 2026-04-25 08:31 | 51.37493 | -0.73488 | 21583 ft | 442 kts | 96° |
| 2026-04-25 08:31 | 51.37224 | -0.68642 | 21866 ft | 444 kts | 96° |
| 2026-04-25 08:32 | 51.36949 | -0.63714 | 22151 ft | 446 kts | 96° |
| 2026-04-25 08:32 | 51.36674 | -0.58755 | 22435 ft | 448 kts | 96° |
| 2026-04-25 08:32 | 51.36399 | -0.53774 | 22714 ft | 450 kts | 96° |
| 2026-04-25 08:32 | 51.36124 | -0.48779 | 22988 ft | 452 kts | 96° |
| 2026-04-25 08:33 | 51.35845 | -0.43747 | 23273 ft | 454 kts | 96° |
| 2026-04-25 08:33 | 51.35560 | -0.38709 | 23515 ft | 456 kts | 96° |
| 2026-04-25 08:33 | 51.35273 | -0.33646 | 23785 ft | 458 kts | 96° |
| 2026-04-25 08:33 | 51.34984 | -0.28562 | 24018 ft | 460 kts | 96° |
| 2026-04-25 08:34 | 51.34689 | -0.23452 | 24241 ft | 462 kts | 96° |
| 2026-04-25 08:34 | 51.34389 | -0.18321 | 24473 ft | 463 kts | 96° |
| 2026-04-25 08:34 | 51.34088 | -0.13187 | 24709 ft | 465 kts | 96° |
| 2026-04-25 08:34 | 51.33786 | -0.08038 | 24932 ft | 466 kts | 96° |
| 2026-04-25 08:35 | 51.33477 | -0.02861 | 25162 ft | 467 kts | 96° |
| 2026-04-25 08:35 | 51.33164 | 0.02318 | 25360 ft | 469 kts | 96° |
| 2026-04-25 08:35 | 51.32839 | 0.06975 | 25519 ft | 470 kts | 98° |
| 2026-04-25 08:35 | 51.32403 | 0.12168 | 25715 ft | 472 kts | 99° |
| 2026-04-25 08:36 | 51.31916 | 0.17210 | 25917 ft | 473 kts | 100° |
| 2026-04-25 08:36 | 51.31382 | 0.22412 | 26138 ft | 475 kts | 101° |
| 2026-04-25 08:36 | 51.30841 | 0.27620 | 26355 ft | 476 kts | 101° |
| 2026-04-25 08:36 | 51.30354 | 0.32388 | 26534 ft | 477 kts | 100° |
| 2026-04-25 08:37 | 51.29835 | 0.37632 | 26727 ft | 479 kts | 100° |
| 2026-04-25 08:37 | 51.29336 | 0.42832 | 26905 ft | 480 kts | 100° |
| 2026-04-25 08:37 | 51.28832 | 0.48146 | 27080 ft | 481 kts | 99° |
| 2026-04-25 08:37 | 51.28336 | 0.53362 | 27216 ft | 483 kts | 99° |
| 2026-04-25 08:38 | 51.27820 | 0.58752 | 27357 ft | 484 kts | 99° |
| 2026-04-25 08:38 | 51.27302 | 0.64073 | 27496 ft | 485 kts | 100° |
| 2026-04-25 08:38 | 51.26778 | 0.69393 | 27680 ft | 485 kts | 100° |
| 2026-04-25 08:38 | 51.26248 | 0.74713 | 27895 ft | 485 kts | 100° |
| 2026-04-25 08:39 | 51.25720 | 0.79957 | 28108 ft | 484 kts | 100° |
| 2026-04-25 08:39 | 51.25185 | 0.85259 | 28320 ft | 484 kts | 100° |
| 2026-04-25 08:39 | 51.24650 | 0.90562 | 28529 ft | 483 kts | 100° |
| 2026-04-25 08:39 | 51.24118 | 0.95852 | 28741 ft | 483 kts | 99° |
| 2026-04-25 08:40 | 51.23587 | 1.01146 | 28889 ft | 484 kts | 100° |
| 2026-04-25 08:40 | 51.23053 | 1.06443 | 29033 ft | 484 kts | 99° |
| 2026-04-25 08:40 | 51.22513 | 1.11758 | 29177 ft | 484 kts | 100° |
| 2026-04-25 08:40 | 51.21968 | 1.17063 | 29370 ft | 484 kts | 100° |
| 2026-04-25 08:41 | 51.21415 | 1.22358 | 29579 ft | 484 kts | 100° |
| 2026-04-25 08:41 | 51.20862 | 1.27638 | 29780 ft | 483 kts | 100° |
| 2026-04-25 08:41 | 51.20306 | 1.32918 | 29984 ft | 483 kts | 100° |
| 2026-04-25 08:41 | 51.19749 | 1.38190 | 30173 ft | 482 kts | 100° |
| 2026-04-25 08:42 | 51.19192 | 1.43465 | 30359 ft | 482 kts | 100° |
| 2026-04-25 08:42 | 51.18642 | 1.48700 | 30491 ft | 482 kts | 100° |
| 2026-04-25 08:42 | 51.18086 | 1.53975 | 30607 ft | 483 kts | 100° |
| 2026-04-25 08:42 | 51.17523 | 1.59253 | 30748 ft | 483 kts | 100° |
| 2026-04-25 08:43 | 51.16958 | 1.64523 | 30910 ft | 483 kts | 100° |
| 2026-04-25 08:43 | 51.16400 | 1.69715 | 31068 ft | 482 kts | 100° |
| 2026-04-25 08:43 | 51.15823 | 1.75056 | 31241 ft | 482 kts | 100° |
| 2026-04-25 08:43 | 51.15250 | 1.80300 | 31413 ft | 481 kts | 100° |
| 2026-04-25 08:44 | 51.14674 | 1.85557 | 31590 ft | 481 kts | 100° |
| 2026-04-25 08:44 | 51.14097 | 1.90802 | 31775 ft | 480 kts | 100° |
| 2026-04-25 08:44 | 51.13521 | 1.96036 | 31926 ft | 480 kts | 99° |
| 2026-04-25 08:44 | 51.13014 | 2.01286 | 32057 ft | 480 kts | 94° |
| 2026-04-25 08:45 | 51.12736 | 2.06573 | 32202 ft | 480 kts | 94° |
| 2026-04-25 08:45 | 51.12458 | 2.11867 | 32366 ft | 479 kts | 94° |
| 2026-04-25 08:45 | 51.12177 | 2.17082 | 32536 ft | 479 kts | 94° |
| 2026-04-25 08:45 | 51.11889 | 2.22364 | 32700 ft | 479 kts | 94° |
| 2026-04-25 08:46 | 51.11598 | 2.27642 | 32869 ft | 478 kts | 94° |
| 2026-04-25 08:46 | 51.11306 | 2.32903 | 33036 ft | 478 kts | 95° |
| 2026-04-25 08:46 | 51.11015 | 2.38165 | 33205 ft | 477 kts | 94° |
| 2026-04-25 08:47 | 51.10428 | 2.48667 | 33238 ft | 476 kts | 94° |
| 2026-04-25 08:47 | 51.09830 | 2.59153 | 33239 ft | 476 kts | 96° |
| 2026-04-25 08:48 | 51.08190 | 2.69320 | 33245 ft | 476 kts | 114° |
| 2026-04-25 08:48 | 51.05328 | 2.78819 | 33244 ft | 476 kts | 116° |
| 2026-04-25 08:49 | 51.02448 | 2.88299 | 33247 ft | 477 kts | 115° |
| 2026-04-25 08:49 | 50.99564 | 2.97787 | 33259 ft | 477 kts | 115° |
| 2026-04-25 08:50 | 50.96659 | 3.07252 | 33252 ft | 477 kts | 116° |
| 2026-04-25 08:50 | 50.93733 | 3.16715 | 33250 ft | 478 kts | 116° |
| 2026-04-25 08:51 | 50.90812 | 3.26162 | 33239 ft | 478 kts | 116° |
| 2026-04-25 08:51 | 50.87895 | 3.35609 | 33248 ft | 477 kts | 115° |
| 2026-04-25 08:52 | 50.84966 | 3.45046 | 33252 ft | 478 kts | 116° |
| 2026-04-25 08:52 | 50.82010 | 3.54462 | 33230 ft | 478 kts | 116° |
| 2026-04-25 08:53 | 50.79060 | 3.63805 | 33237 ft | 478 kts | 116° |
| 2026-04-25 08:53 | 50.76088 | 3.73205 | 33240 ft | 478 kts | 116° |
| 2026-04-25 08:54 | 50.73123 | 3.82599 | 33245 ft | 478 kts | 115° |
| 2026-04-25 08:54 | 50.70153 | 3.91986 | 33233 ft | 478 kts | 116° |
| 2026-04-25 08:55 | 50.67162 | 4.01363 | 33232 ft | 478 kts | 116° |
| 2026-04-25 08:55 | 50.64648 | 4.09205 | 33232 ft | 478 kts | 116° |
| 2026-04-25 08:56 | 50.61666 | 4.18497 | 33231 ft | 478 kts | 116° |
| 2026-04-25 08:56 | 50.58658 | 4.27834 | 33232 ft | 478 kts | 116° |
| 2026-04-25 08:57 | 50.55632 | 4.37173 | 33219 ft | 478 kts | 116° |
| 2026-04-25 08:57 | 50.52611 | 4.46490 | 33227 ft | 478 kts | 116° |
| 2026-04-25 08:58 | 50.49586 | 4.55809 | 33230 ft | 478 kts | 116° |
| 2026-04-25 08:58 | 50.46553 | 4.65090 | 33241 ft | 478 kts | 116° |
| 2026-04-25 08:59 | 50.43500 | 4.74371 | 33236 ft | 478 kts | 116° |
| 2026-04-25 08:59 | 50.40443 | 4.83634 | 33225 ft | 478 kts | 116° |
| 2026-04-25 09:00 | 50.37383 | 4.92890 | 33223 ft | 478 kts | 116° |
| 2026-04-25 09:00 | 50.34312 | 5.02127 | 33221 ft | 478 kts | 116° |
| 2026-04-25 09:01 | 50.31232 | 5.11373 | 33232 ft | 478 kts | 116° |
| 2026-04-25 09:01 | 50.28155 | 5.20597 | 33204 ft | 479 kts | 116° |
| 2026-04-25 09:02 | 50.25082 | 5.29753 | 33204 ft | 479 kts | 117° |
| 2026-04-25 09:02 | 50.21978 | 5.38954 | 33203 ft | 479 kts | 117° |
| 2026-04-25 09:03 | 50.18875 | 5.48141 | 33198 ft | 479 kts | 117° |
| 2026-04-25 09:03 | 50.15760 | 5.57334 | 33199 ft | 479 kts | 117° |
| 2026-04-25 09:04 | 50.12632 | 5.66518 | 33195 ft | 480 kts | 117° |
| 2026-04-25 09:04 | 50.09497 | 5.75691 | 33178 ft | 480 kts | 117° |
| 2026-04-25 09:05 | 50.06365 | 5.84867 | 33176 ft | 480 kts | 116° |
| 2026-04-25 09:05 | 50.03380 | 5.94162 | 33173 ft | 480 kts | 115° |
| 2026-04-25 09:06 | 50.00446 | 6.03483 | 33161 ft | 480 kts | 115° |
| 2026-04-25 09:06 | 49.97461 | 6.12784 | 33163 ft | 481 kts | 116° |
| 2026-04-25 09:07 | 49.94436 | 6.22045 | 33163 ft | 481 kts | 116° |
| 2026-04-25 09:07 | 49.91399 | 6.31302 | 33163 ft | 481 kts | 116° |
| 2026-04-25 09:08 | 49.88372 | 6.40561 | 33155 ft | 481 kts | 116° |
| 2026-04-25 09:08 | 49.85342 | 6.49822 | 33151 ft | 482 kts | 116° |
| 2026-04-25 09:09 | 49.82295 | 6.59097 | 33140 ft | 483 kts | 116° |
| 2026-04-25 09:09 | 49.79231 | 6.68339 | 33139 ft | 483 kts | 116° |
| 2026-04-25 09:10 | 49.76153 | 6.77579 | 33136 ft | 483 kts | 116° |
| 2026-04-25 09:10 | 49.73071 | 6.86824 | 33147 ft | 483 kts | 116° |
| 2026-04-25 09:11 | 49.68435 | 7.00670 | 33152 ft | 484 kts | 116° |
| 2026-04-25 09:11 | 49.65336 | 7.09885 | 33166 ft | 484 kts | 116° |
| 2026-04-25 09:12 | 49.62225 | 7.19091 | 33164 ft | 484 kts | 116° |
| 2026-04-25 09:12 | 49.59112 | 7.28285 | 33168 ft | 484 kts | 117° |
| 2026-04-25 09:13 | 49.55988 | 7.37453 | 33174 ft | 483 kts | 117° |
| 2026-04-25 09:13 | 49.52860 | 7.46612 | 33174 ft | 483 kts | 117° |
| 2026-04-25 09:14 | 49.49731 | 7.55754 | 33143 ft | 483 kts | 117° |
| 2026-04-25 09:14 | 49.46621 | 7.64809 | 33166 ft | 481 kts | 117° |
| 2026-04-25 09:15 | 49.43489 | 7.73881 | 33172 ft | 479 kts | 117° |
| 2026-04-25 09:15 | 49.40363 | 7.82910 | 33172 ft | 479 kts | 117° |
| 2026-04-25 09:16 | 49.37234 | 7.91921 | 33172 ft | 478 kts | 117° |
| 2026-04-25 09:16 | 49.34075 | 8.00968 | 33171 ft | 478 kts | 117° |
| 2026-04-25 09:17 | 49.29393 | 8.14348 | 33168 ft | 476 kts | 118° |
| 2026-04-25 09:18 | 49.26251 | 8.23282 | 33169 ft | 476 kts | 118° |
| 2026-04-25 09:18 | 49.23104 | 8.32196 | 33167 ft | 476 kts | 118° |
| 2026-04-25 09:19 | 49.19954 | 8.41079 | 33172 ft | 474 kts | 118° |
| 2026-04-25 09:19 | 49.16816 | 8.49905 | 33180 ft | 472 kts | 118° |
| 2026-04-25 09:20 | 49.13685 | 8.58687 | 33175 ft | 470 kts | 118° |
| 2026-04-25 09:20 | 49.10609 | 8.67228 | 33167 ft | 469 kts | 120° |
| 2026-04-25 09:21 | 49.07112 | 8.75822 | 33160 ft | 469 kts | 123° |
| 2026-04-25 09:21 | 49.03439 | 8.84037 | 33163 ft | 468 kts | 125° |
| 2026-04-25 09:22 | 48.99778 | 8.92236 | 33136 ft | 468 kts | 124° |
| 2026-04-25 09:22 | 48.96190 | 9.00504 | 33134 ft | 468 kts | 123° |
| 2026-04-25 09:23 | 48.92982 | 9.07950 | 33142 ft | 467 kts | 123° |
| 2026-04-25 09:23 | 48.89433 | 9.16201 | 33154 ft | 466 kts | 124° |
| 2026-04-25 09:24 | 48.85838 | 9.24370 | 33153 ft | 465 kts | 124° |
| 2026-04-25 09:24 | 48.82244 | 9.32517 | 33150 ft | 464 kts | 124° |
| 2026-04-25 09:25 | 48.78659 | 9.40653 | 33139 ft | 464 kts | 125° |
| 2026-04-25 09:25 | 48.75066 | 9.48797 | 33134 ft | 464 kts | 125° |
| 2026-04-25 09:26 | 48.71470 | 9.56921 | 33132 ft | 464 kts | 125° |
| 2026-04-25 09:26 | 48.67871 | 9.65018 | 33132 ft | 464 kts | 126° |
| 2026-04-25 09:27 | 48.64390 | 9.73253 | 33116 ft | 465 kts | 123° |
| 2026-04-25 09:27 | 48.61143 | 9.81718 | 33121 ft | 466 kts | 122° |
| 2026-04-25 09:28 | 48.57908 | 9.90194 | 33122 ft | 466 kts | 122° |
| 2026-04-25 09:28 | 48.54606 | 9.98605 | 33130 ft | 465 kts | 123° |
| 2026-04-25 09:29 | 48.51281 | 10.06915 | 33119 ft | 466 kts | 124° |
| 2026-04-25 09:29 | 48.47933 | 10.15294 | 33127 ft | 467 kts | 124° |
| 2026-04-25 09:30 | 48.44588 | 10.23685 | 33127 ft | 467 kts | 124° |
| 2026-04-25 09:30 | 48.41241 | 10.32063 | 33130 ft | 467 kts | 124° |
| 2026-04-25 09:31 | 48.37876 | 10.40439 | 33132 ft | 467 kts | 124° |
| 2026-04-25 09:31 | 48.34507 | 10.48807 | 33123 ft | 468 kts | 124° |
| 2026-04-25 09:32 | 48.31125 | 10.57166 | 33124 ft | 469 kts | 124° |
| 2026-04-25 09:32 | 48.27736 | 10.65527 | 33127 ft | 469 kts | 124° |
| 2026-04-25 09:33 | 48.24341 | 10.73885 | 33129 ft | 469 kts | 124° |
| 2026-04-25 09:33 | 48.20932 | 10.82224 | 33125 ft | 470 kts | 124° |
| 2026-04-25 09:34 | 48.17513 | 10.90575 | 33126 ft | 470 kts | 124° |
| 2026-04-25 09:34 | 48.14109 | 10.98877 | 33128 ft | 471 kts | 124° |
| 2026-04-25 09:35 | 48.10675 | 11.07222 | 33119 ft | 470 kts | 125° |
| 2026-04-25 09:35 | 48.07240 | 11.15541 | 33131 ft | 470 kts | 125° |
| 2026-04-25 09:36 | 48.03791 | 11.23862 | 33130 ft | 470 kts | 125° |
| 2026-04-25 09:36 | 48.00341 | 11.32159 | 33141 ft | 470 kts | 125° |
| 2026-04-25 09:37 | 47.96886 | 11.40449 | 33141 ft | 470 kts | 125° |
| 2026-04-25 09:37 | 47.94012 | 11.47319 | 33140 ft | 470 kts | 125° |
| 2026-04-25 09:38 | 47.91411 | 11.53535 | 33136 ft | 470 kts | 125° |
| 2026-04-25 09:38 | 47.87941 | 11.61810 | 33132 ft | 471 kts | 125° |
| 2026-04-25 09:39 | 47.84461 | 11.70080 | 33131 ft | 471 kts | 125° |
| 2026-04-25 09:39 | 47.80971 | 11.78331 | 33134 ft | 470 kts | 125° |
| 2026-04-25 09:40 | 47.75733 | 11.90660 | 33138 ft | 470 kts | 125° |
| 2026-04-25 09:40 | 47.72238 | 11.98855 | 33128 ft | 470 kts | 125° |
| 2026-04-25 09:41 | 47.68741 | 12.07044 | 33129 ft | 470 kts | 125° |
| 2026-04-25 09:41 | 47.65238 | 12.15232 | 33135 ft | 470 kts | 125° |
| 2026-04-25 09:42 | 47.61720 | 12.23416 | 33130 ft | 470 kts | 125° |
| 2026-04-25 09:42 | 47.58195 | 12.31578 | 33133 ft | 470 kts | 125° |
| 2026-04-25 09:43 | 47.54464 | 12.39508 | 33112 ft | 466 kts | 133° |
| 2026-04-25 09:43 | 47.50292 | 12.46850 | 33127 ft | 466 kts | 133° |
| 2026-04-25 09:44 | 47.46113 | 12.54179 | 33131 ft | 466 kts | 133° |
| 2026-04-25 09:44 | 47.41935 | 12.61503 | 33122 ft | 466 kts | 133° |
| 2026-04-25 09:45 | 47.37739 | 12.68831 | 33121 ft | 467 kts | 133° |
| 2026-04-25 09:45 | 47.33566 | 12.76102 | 33123 ft | 467 kts | 133° |
| 2026-04-25 09:46 | 47.29362 | 12.83403 | 33119 ft | 468 kts | 133° |
| 2026-04-25 09:46 | 47.25156 | 12.90705 | 33105 ft | 467 kts | 133° |
| 2026-04-25 09:47 | 47.20945 | 12.97994 | 33101 ft | 467 kts | 133° |
| 2026-04-25 09:47 | 47.16723 | 13.05283 | 33102 ft | 468 kts | 133° |
| 2026-04-25 09:48 | 47.12499 | 13.12550 | 33096 ft | 468 kts | 133° |
| 2026-04-25 09:48 | 47.08258 | 13.19822 | 33109 ft | 468 kts | 133° |
| 2026-04-25 09:49 | 47.04015 | 13.27079 | 33107 ft | 468 kts | 133° |
| 2026-04-25 09:49 | 46.99769 | 13.34317 | 33096 ft | 468 kts | 133° |
| 2026-04-25 09:50 | 46.95515 | 13.41539 | 33098 ft | 468 kts | 133° |
| 2026-04-25 09:50 | 46.91260 | 13.48754 | 33099 ft | 469 kts | 134° |
| 2026-04-25 09:51 | 46.87002 | 13.55969 | 33101 ft | 468 kts | 133° |
| 2026-04-25 09:51 | 46.82744 | 13.63164 | 33093 ft | 468 kts | 133° |
| 2026-04-25 09:52 | 46.78476 | 13.70357 | 33085 ft | 469 kts | 133° |
| 2026-04-25 09:52 | 46.74198 | 13.77531 | 33095 ft | 468 kts | 133° |
| 2026-04-25 09:53 | 46.71842 | 13.81472 | 33090 ft | 468 kts | 133° |
| 2026-04-25 09:53 | 46.67558 | 13.88623 | 33097 ft | 468 kts | 133° |
| 2026-04-25 09:54 | 46.63275 | 13.95773 | 33081 ft | 468 kts | 133° |
| 2026-04-25 09:54 | 46.58988 | 14.02910 | 33084 ft | 469 kts | 133° |
| 2026-04-25 09:55 | 46.54713 | 14.09990 | 33104 ft | 469 kts | 133° |
| 2026-04-25 09:55 | 46.50415 | 14.17109 | 33111 ft | 469 kts | 133° |
| 2026-04-25 09:56 | 46.46108 | 14.24220 | 33103 ft | 469 kts | 133° |
| 2026-04-25 09:56 | 46.41801 | 14.31313 | 33101 ft | 468 kts | 133° |
| 2026-04-25 09:57 | 46.37491 | 14.38383 | 33086 ft | 468 kts | 133° |
| 2026-04-25 09:57 | 46.33177 | 14.45441 | 33083 ft | 468 kts | 133° |
| 2026-04-25 09:58 | 46.28866 | 14.52486 | 33084 ft | 468 kts | 133° |
| 2026-04-25 09:58 | 46.24550 | 14.59519 | 33086 ft | 468 kts | 133° |
| 2026-04-25 09:59 | 46.20226 | 14.66545 | 33074 ft | 468 kts | 133° |
| 2026-04-25 09:59 | 46.15906 | 14.73555 | 33086 ft | 467 kts | 133° |
| 2026-04-25 10:00 | 46.11574 | 14.80559 | 33083 ft | 467 kts | 133° |
| 2026-04-25 10:00 | 46.07246 | 14.87541 | 33089 ft | 467 kts | 133° |
| 2026-04-25 10:01 | 46.02911 | 14.94515 | 33082 ft | 467 kts | 133° |
| 2026-04-25 10:01 | 45.98565 | 15.01474 | 33083 ft | 467 kts | 133° |
| 2026-04-25 10:02 | 45.94223 | 15.08422 | 33074 ft | 467 kts | 133° |
| 2026-04-25 10:02 | 45.89883 | 15.15358 | 33080 ft | 466 kts | 133° |
| 2026-04-25 10:03 | 45.85570 | 15.22221 | 33078 ft | 466 kts | 133° |
| 2026-04-25 10:03 | 45.81217 | 15.29112 | 33080 ft | 466 kts | 133° |
| 2026-04-25 10:04 | 45.76728 | 15.35787 | 33076 ft | 464 kts | 142° |
| 2026-04-25 10:04 | 45.71526 | 15.41221 | 33074 ft | 462 kts | 146° |
| 2026-04-25 10:05 | 45.66278 | 15.46557 | 33067 ft | 462 kts | 146° |
| 2026-04-25 10:05 | 45.61033 | 15.51879 | 33074 ft | 462 kts | 146° |
| 2026-04-25 10:06 | 45.55783 | 15.57190 | 33068 ft | 462 kts | 146° |
| 2026-04-25 10:06 | 45.50536 | 15.62496 | 33063 ft | 462 kts | 146° |
| 2026-04-25 10:07 | 45.45291 | 15.67791 | 33058 ft | 462 kts | 146° |
| 2026-04-25 10:07 | 45.40045 | 15.73078 | 33070 ft | 462 kts | 146° |
| 2026-04-25 10:08 | 45.34785 | 15.78354 | 33072 ft | 462 kts | 146° |
| 2026-04-25 10:08 | 45.29519 | 15.83612 | 33076 ft | 463 kts | 146° |
| 2026-04-25 10:09 | 45.24252 | 15.88869 | 33077 ft | 463 kts | 146° |
| 2026-04-25 10:09 | 45.19513 | 15.95045 | 33083 ft | 464 kts | 134° |
| 2026-04-25 10:10 | 45.15083 | 16.01705 | 33082 ft | 464 kts | 134° |
| 2026-04-25 10:10 | 45.10625 | 16.08335 | 33082 ft | 465 kts | 134° |
| 2026-04-25 10:11 | 45.06155 | 16.14954 | 33083 ft | 465 kts | 134° |
| 2026-04-25 10:11 | 45.01717 | 16.21533 | 33085 ft | 465 kts | 134° |
| 2026-04-25 10:12 | 44.97250 | 16.28156 | 33085 ft | 465 kts | 134° |
| 2026-04-25 10:13 | 44.90555 | 16.38054 | 33080 ft | 465 kts | 134° |
| 2026-04-25 10:13 | 44.86077 | 16.44626 | 33082 ft | 465 kts | 134° |
| 2026-04-25 10:14 | 44.81599 | 16.51182 | 33081 ft | 464 kts | 134° |
| 2026-04-25 10:14 | 44.77118 | 16.57739 | 33083 ft | 464 kts | 134° |
| 2026-04-25 10:15 | 44.72608 | 16.64325 | 33081 ft | 464 kts | 134° |
| 2026-04-25 10:15 | 44.68134 | 16.70854 | 33086 ft | 464 kts | 134° |
| 2026-04-25 10:16 | 44.63681 | 16.77331 | 33090 ft | 464 kts | 134° |
| 2026-04-25 10:16 | 44.59167 | 16.83876 | 33092 ft | 464 kts | 134° |
| 2026-04-25 10:17 | 44.54576 | 16.90143 | 33086 ft | 464 kts | 142° |
| 2026-04-25 10:17 | 44.49181 | 16.95091 | 33080 ft | 463 kts | 148° |
| 2026-04-25 10:18 | 44.43714 | 16.99861 | 33080 ft | 463 kts | 148° |
| 2026-04-25 10:18 | 44.38244 | 17.04625 | 33095 ft | 463 kts | 148° |
| 2026-04-25 10:19 | 44.32779 | 17.09383 | 33085 ft | 463 kts | 148° |
| 2026-04-25 10:19 | 44.27311 | 17.14133 | 33089 ft | 463 kts | 148° |
| 2026-04-25 10:20 | 44.21835 | 17.18868 | 33090 ft | 463 kts | 148° |
| 2026-04-25 10:20 | 44.16354 | 17.23589 | 33101 ft | 463 kts | 148° |
| 2026-04-25 10:21 | 44.10871 | 17.28307 | 33103 ft | 463 kts | 148° |
| 2026-04-25 10:21 | 44.06324 | 17.32227 | 33111 ft | 463 kts | 148° |
| 2026-04-25 10:22 | 43.99954 | 17.37697 | 33103 ft | 463 kts | 148° |
| 2026-04-25 10:22 | 43.94463 | 17.42394 | 33109 ft | 463 kts | 148° |
| 2026-04-25 10:23 | 43.89865 | 17.46318 | 33114 ft | 463 kts | 148° |
| 2026-04-25 10:23 | 43.84377 | 17.50989 | 33111 ft | 463 kts | 148° |
| 2026-04-25 10:24 | 43.78897 | 17.55662 | 33118 ft | 462 kts | 147° |
| 2026-04-25 10:24 | 43.73464 | 17.60301 | 33116 ft | 462 kts | 147° |
| 2026-04-25 10:25 | 43.67982 | 17.64927 | 33112 ft | 461 kts | 148° |
| 2026-04-25 10:25 | 43.62504 | 17.69538 | 33111 ft | 461 kts | 148° |
| 2026-04-25 10:26 | 43.57035 | 17.74142 | 33122 ft | 460 kts | 147° |
| 2026-04-25 10:26 | 43.51578 | 17.78737 | 33121 ft | 459 kts | 147° |
| 2026-04-25 10:27 | 43.46136 | 17.83315 | 33090 ft | 458 kts | 147° |
| 2026-04-25 10:27 | 43.40702 | 17.87874 | 33074 ft | 457 kts | 147° |
| 2026-04-25 10:28 | 43.35262 | 17.92421 | 33064 ft | 457 kts | 147° |
| 2026-04-25 10:28 | 43.29831 | 17.96956 | 33060 ft | 457 kts | 147° |
| 2026-04-25 10:29 | 43.24386 | 18.01491 | 33065 ft | 457 kts | 147° |
| 2026-04-25 10:29 | 43.18942 | 18.06013 | 33072 ft | 458 kts | 147° |
| 2026-04-25 10:30 | 43.13505 | 18.10523 | 33085 ft | 457 kts | 147° |
| 2026-04-25 10:30 | 43.08059 | 18.15020 | 33095 ft | 456 kts | 147° |
| 2026-04-25 10:31 | 43.02659 | 18.19476 | 33101 ft | 456 kts | 147° |
| 2026-04-25 10:31 | 42.97287 | 18.23904 | 33098 ft | 456 kts | 147° |
| 2026-04-25 10:32 | 42.91855 | 18.28374 | 33096 ft | 455 kts | 147° |
| 2026-04-25 10:32 | 42.86426 | 18.32832 | 33093 ft | 455 kts | 147° |
| 2026-04-25 10:33 | 42.81002 | 18.37278 | 33091 ft | 454 kts | 147° |
| 2026-04-25 10:33 | 42.75823 | 18.41511 | 33086 ft | 454 kts | 147° |
| 2026-04-25 10:34 | 42.70402 | 18.45921 | 33091 ft | 453 kts | 147° |
| 2026-04-25 10:34 | 42.64988 | 18.50340 | 33084 ft | 454 kts | 147° |
| 2026-04-25 10:35 | 42.59567 | 18.54745 | 33086 ft | 454 kts | 147° |
| 2026-04-25 10:35 | 42.54141 | 18.59133 | 33084 ft | 454 kts | 147° |
| 2026-04-25 10:36 | 42.48725 | 18.63514 | 33091 ft | 453 kts | 146° |
| 2026-04-25 10:36 | 42.43312 | 18.67889 | 33084 ft | 453 kts | 147° |
| 2026-04-25 10:37 | 42.37897 | 18.72246 | 33085 ft | 453 kts | 147° |
| 2026-04-25 10:37 | 42.32514 | 18.76570 | 33078 ft | 453 kts | 147° |
| 2026-04-25 10:38 | 42.26903 | 18.80445 | 33083 ft | 456 kts | 159° |
| 2026-04-25 10:38 | 42.20774 | 18.82776 | 33080 ft | 458 kts | 162° |
| 2026-04-25 10:39 | 42.14627 | 18.85032 | 33075 ft | 458 kts | 162° |
| 2026-04-25 10:39 | 42.08475 | 18.87289 | 33068 ft | 458 kts | 162° |
| 2026-04-25 10:40 | 42.02321 | 18.89535 | 33084 ft | 458 kts | 162° |
| 2026-04-25 10:40 | 41.96168 | 18.91782 | 33088 ft | 458 kts | 162° |
| 2026-04-25 10:41 | 41.90016 | 18.94024 | 33077 ft | 458 kts | 162° |
| 2026-04-25 10:41 | 41.83861 | 18.96263 | 33079 ft | 458 kts | 162° |
| 2026-04-25 10:42 | 41.77751 | 18.98482 | 33079 ft | 458 kts | 162° |
| 2026-04-25 10:42 | 41.71600 | 19.00718 | 33081 ft | 458 kts | 162° |
| 2026-04-25 10:43 | 41.65447 | 19.02936 | 33071 ft | 458 kts | 162° |
| 2026-04-25 10:43 | 41.59303 | 19.05148 | 33078 ft | 457 kts | 162° |
| 2026-04-25 10:44 | 41.53154 | 19.07360 | 33078 ft | 457 kts | 162° |
| 2026-04-25 10:44 | 41.47011 | 19.09568 | 33077 ft | 457 kts | 162° |
| 2026-04-25 10:45 | 41.41034 | 19.12349 | 33076 ft | 455 kts | 156° |
| 2026-04-25 10:45 | 41.35136 | 19.15246 | 33072 ft | 455 kts | 156° |
| 2026-04-25 10:46 | 41.29189 | 19.18135 | 33067 ft | 455 kts | 156° |
| 2026-04-25 10:46 | 41.23246 | 19.21031 | 33067 ft | 455 kts | 156° |
| 2026-04-25 10:47 | 41.17298 | 19.23927 | 33068 ft | 455 kts | 156° |
| 2026-04-25 10:47 | 41.11345 | 19.26812 | 33065 ft | 455 kts | 156° |
| 2026-04-25 10:48 | 41.05395 | 19.29687 | 33068 ft | 455 kts | 156° |
| 2026-04-25 10:48 | 40.99441 | 19.32566 | 33065 ft | 455 kts | 156° |
| 2026-04-25 10:49 | 40.93488 | 19.35435 | 33069 ft | 455 kts | 156° |
| 2026-04-25 10:49 | 40.87559 | 19.38280 | 33067 ft | 455 kts | 156° |
| 2026-04-25 10:50 | 40.81600 | 19.41143 | 33057 ft | 455 kts | 156° |
| 2026-04-25 10:50 | 40.75652 | 19.44004 | 33053 ft | 455 kts | 156° |
| 2026-04-25 10:51 | 40.69695 | 19.46863 | 33070 ft | 455 kts | 156° |
| 2026-04-25 10:51 | 40.63741 | 19.49702 | 33060 ft | 455 kts | 156° |
| 2026-04-25 10:52 | 40.57779 | 19.52539 | 33051 ft | 455 kts | 156° |
| 2026-04-25 10:52 | 40.51854 | 19.55355 | 33047 ft | 455 kts | 156° |
| 2026-04-25 10:53 | 40.45900 | 19.58205 | 33045 ft | 455 kts | 155° |
| 2026-04-25 10:53 | 40.40099 | 19.61465 | 33041 ft | 453 kts | 151° |
| 2026-04-25 10:54 | 40.34408 | 19.65003 | 33041 ft | 452 kts | 150° |
| 2026-04-25 10:54 | 40.28703 | 19.68490 | 33036 ft | 453 kts | 151° |
| 2026-04-25 10:55 | 40.22956 | 19.71878 | 33041 ft | 453 kts | 152° |
| 2026-04-25 10:55 | 40.17201 | 19.75227 | 32826 ft | 453 kts | 152° |
| 2026-04-25 10:55 | 40.14398 | 19.76863 | 32566 ft | 453 kts | 152° |
| 2026-04-25 10:56 | 40.11566 | 19.78523 | 32308 ft | 453 kts | 152° |
| 2026-04-25 10:56 | 40.08684 | 19.80217 | 32055 ft | 454 kts | 152° |
| 2026-04-25 10:56 | 40.05805 | 19.81913 | 31792 ft | 454 kts | 152° |
| 2026-04-25 10:56 | 40.02924 | 19.83607 | 31273 ft | 453 kts | 152° |
| 2026-04-25 10:57 | 40.00045 | 19.85299 | 30478 ft | 454 kts | 152° |
| 2026-04-25 10:57 | 39.97328 | 19.86890 | 29650 ft | 456 kts | 152° |
| 2026-04-25 10:57 | 39.94426 | 19.88585 | 28684 ft | 457 kts | 152° |
| 2026-04-25 10:57 | 39.91519 | 19.90281 | 27808 ft | 458 kts | 152° |
| 2026-04-25 10:58 | 39.88620 | 19.91970 | 27169 ft | 453 kts | 153° |
| 2026-04-25 10:58 | 39.85757 | 19.93634 | 26530 ft | 449 kts | 153° |
| 2026-04-25 10:58 | 39.82919 | 19.95278 | 25901 ft | 444 kts | 153° |
| 2026-04-25 10:58 | 39.80170 | 19.96869 | 25290 ft | 440 kts | 153° |
| 2026-04-25 10:59 | 39.77492 | 19.98421 | 24711 ft | 437 kts | 153° |
| 2026-04-25 10:59 | 39.74649 | 20.00068 | 24093 ft | 433 kts | 153° |
| 2026-04-25 10:59 | 39.71908 | 20.01658 | 23490 ft | 429 kts | 153° |
| 2026-04-25 10:59 | 39.69196 | 20.03235 | 22797 ft | 426 kts | 153° |
| 2026-04-25 11:00 | 39.66504 | 20.04799 | 22114 ft | 422 kts | 153° |
| 2026-04-25 11:00 | 39.63802 | 20.06364 | 21434 ft | 418 kts | 153° |
| 2026-04-25 11:00 | 39.61206 | 20.07868 | 20777 ft | 414 kts | 153° |
| 2026-04-25 11:00 | 39.58592 | 20.09384 | 20108 ft | 410 kts | 153° |
| 2026-04-25 11:01 | 39.56001 | 20.10881 | 19473 ft | 406 kts | 153° |
| 2026-04-25 11:01 | 39.53431 | 20.12361 | 18819 ft | 403 kts | 153° |
| 2026-04-25 11:01 | 39.50926 | 20.13800 | 18186 ft | 399 kts | 153° |
| 2026-04-25 11:01 | 39.48394 | 20.15254 | 17501 ft | 396 kts | 153° |
| 2026-04-25 11:02 | 39.45908 | 20.16677 | 16858 ft | 392 kts | 153° |
| 2026-04-25 11:02 | 39.43404 | 20.18112 | 16234 ft | 389 kts | 153° |
| 2026-04-25 11:02 | 39.40943 | 20.19527 | 15636 ft | 385 kts | 153° |
| 2026-04-25 11:02 | 39.38501 | 20.20932 | 15047 ft | 382 kts | 153° |
| 2026-04-25 11:03 | 39.36082 | 20.22323 | 14478 ft | 380 kts | 153° |
| 2026-04-25 11:03 | 39.33677 | 20.23704 | 13921 ft | 377 kts | 153° |
| 2026-04-25 11:03 | 39.31284 | 20.25079 | 13304 ft | 374 kts | 153° |
| 2026-04-25 11:03 | 39.28917 | 20.26441 | 12715 ft | 371 kts | 154° |
| 2026-04-25 11:04 | 39.26566 | 20.27784 | 12170 ft | 367 kts | 154° |
| 2026-04-25 11:04 | 39.24256 | 20.29154 | 11617 ft | 363 kts | 149° |
| 2026-04-25 11:04 | 39.22157 | 20.30909 | 11091 ft | 357 kts | 140° |
| 2026-04-25 11:04 | 39.20928 | 20.32293 | 10738 ft | 353 kts | 133° |
| 2026-04-25 11:05 | 39.18799 | 20.35471 | 10018 ft | 348 kts | 127° |
| 2026-04-25 11:05 | 39.17310 | 20.37815 | 9815 ft | 335 kts | 128° |
| 2026-04-25 11:05 | 39.15864 | 20.40076 | 9672 ft | 319 kts | 128° |
| 2026-04-25 11:05 | 39.14480 | 20.42233 | 9537 ft | 305 kts | 128° |
| 2026-04-25 11:06 | 39.13159 | 20.44290 | 9414 ft | 292 kts | 128° |
| 2026-04-25 11:06 | 39.11884 | 20.46274 | 9118 ft | 284 kts | 128° |
| 2026-04-25 11:06 | 39.10629 | 20.48228 | 8702 ft | 282 kts | 127° |
| 2026-04-25 11:06 | 39.09805 | 20.49515 | 8417 ft | 281 kts | 127° |
| 2026-04-25 11:07 | 39.08207 | 20.52021 | 7881 ft | 278 kts | 127° |
| 2026-04-25 11:07 | 39.07012 | 20.53879 | 7491 ft | 276 kts | 127° |
| 2026-04-25 11:07 | 39.05788 | 20.55776 | 7091 ft | 275 kts | 127° |
| 2026-04-25 11:07 | 39.04574 | 20.57660 | 6722 ft | 272 kts | 127° |
| 2026-04-25 11:08 | 39.03376 | 20.59519 | 6354 ft | 268 kts | 127° |
| 2026-04-25 11:08 | 39.02590 | 20.60739 | 6089 ft | 266 kts | 127° |
| 2026-04-25 11:08 | 39.01024 | 20.63167 | 6005 ft | 268 kts | 127° |
| 2026-04-25 11:08 | 39.00220 | 20.64412 | 5929 ft | 267 kts | 127° |
| 2026-04-25 11:09 | 38.99034 | 20.66245 | 5473 ft | 267 kts | 127° |
| 2026-04-25 11:09 | 38.97465 | 20.68676 | 4867 ft | 267 kts | 127° |
| 2026-04-25 11:09 | 38.96301 | 20.70484 | 4626 ft | 258 kts | 128° |
| 2026-04-25 11:09 | 38.95541 | 20.71658 | 4559 ft | 248 kts | 127° |
| 2026-04-25 11:10 | 38.94670 | 20.73452 | 4446 ft | 228 kts | 108° |
| 2026-04-25 11:10 | 38.94419 | 20.74727 | 4353 ft | 218 kts | 94° |
| 2026-04-25 11:10 | 38.94601 | 20.77198 | 4024 ft | 204 kts | 69° |
| 2026-04-25 11:10 | 38.95253 | 20.78784 | 3601 ft | 201 kts | 51° |
| 2026-04-25 11:11 | 38.96258 | 20.80025 | 3152 ft | 202 kts | 36° |
| 2026-04-25 11:11 | 38.97328 | 20.81122 | 3008 ft | 191 kts | 37° |
| 2026-04-25 11:11 | 38.98324 | 20.82155 | 2785 ft | 179 kts | 37° |
| 2026-04-25 11:11 | 38.99275 | 20.83144 | 2447 ft | 174 kts | 36° |
| 2026-04-25 11:12 | 39.00175 | 20.84081 | 2245 ft | 163 kts | 38° |
| 2026-04-25 11:12 | 39.01057 | 20.85000 | 2106 ft | 165 kts | 38° |
| 2026-04-25 11:12 | 39.01951 | 20.85929 | 2107 ft | 166 kts | 36° |
| 2026-04-25 11:12 | 39.02838 | 20.86851 | 2112 ft | 167 kts | 37° |
| 2026-04-25 11:13 | 39.03742 | 20.87787 | 2113 ft | 167 kts | 36° |
| 2026-04-25 11:13 | 39.04597 | 20.88715 | 2103 ft | 157 kts | 44° |
| 2026-04-25 11:13 | 39.05261 | 20.89819 | 2104 ft | 156 kts | 59° |
| 2026-04-25 11:13 | 39.05690 | 20.91103 | 2105 ft | 157 kts | 72° |
| 2026-04-25 11:14 | 39.05870 | 20.92488 | 2096 ft | 158 kts | 86° |
| 2026-04-25 11:14 | 39.05779 | 20.93892 | 2111 ft | 158 kts | 101° |
| 2026-04-25 11:14 | 39.05420 | 20.95230 | 2108 ft | 159 kts | 115° |
| 2026-04-25 11:14 | 39.04813 | 20.96411 | 2112 ft | 159 kts | 131° |
| 2026-04-25 11:15 | 39.03987 | 20.97364 | 2112 ft | 160 kts | 146° |
| 2026-04-25 11:15 | 39.03053 | 20.98140 | 2109 ft | 160 kts | 149° |
| 2026-04-25 11:15 | 39.02070 | 20.98776 | 2124 ft | 158 kts | 165° |
| 2026-04-25 11:15 | 39.00989 | 20.98883 | 2106 ft | 155 kts | 191° |
| 2026-04-25 11:16 | 38.99228 | 20.97502 | 2116 ft | 150 kts | 238° |
| 2026-04-25 11:16 | 38.98788 | 20.96299 | 2113 ft | 149 kts | 251° |
| 2026-04-25 11:16 | 38.98410 | 20.95059 | 2120 ft | 149 kts | 251° |
| 2026-04-25 11:17 | 38.98024 | 20.93802 | 2111 ft | 154 kts | 252° |
| 2026-04-25 11:17 | 38.97630 | 20.92522 | 2110 ft | 154 kts | 251° |
| 2026-04-25 11:17 | 38.97232 | 20.91236 | 2109 ft | 155 kts | 250° |
| 2026-04-25 11:17 | 38.96836 | 20.89950 | 2113 ft | 155 kts | 250° |
| 2026-04-25 11:18 | 38.96431 | 20.88652 | 1894 ft | 154 kts | 251° |
| 2026-04-25 11:18 | 38.96038 | 20.87385 | 1679 ft | 151 kts | 251° |
| 2026-04-25 11:18 | 38.95659 | 20.86159 | 1470 ft | 145 kts | 250° |
| 2026-04-25 11:18 | 38.95291 | 20.84972 | 1282 ft | 146 kts | 250° |
| 2026-04-25 11:19 | 38.94915 | 20.83771 | 1094 ft | 144 kts | 250° |
| 2026-04-25 11:19 | 38.94531 | 20.82553 | 904 ft | 145 kts | 249° |
| 2026-04-25 11:19 | 38.94121 | 20.81386 | 651 ft | 145 kts | 248° |
| 2026-04-25 11:19 | 38.93695 | 20.80208 | 483 ft | 143 kts | 248° |
| 2026-04-25 11:20 | 38.93340 | 20.79027 | 264 ft | 142 kts | 251° |
| 2026-04-25 11:20 | 38.93016 | 20.77959 | 68 ft | 139 kts | 251° |
| 2026-04-25 11:20 | 38.92679 | 20.76878 | 21 ft | 104 kts | 247° |
| 2026-04-25 11:20 | 38.92505 | 20.76325 | 22 ft | 47 kts | 247° |
| 2026-04-25 11:21 | 38.92387 | 20.75951 | 20 ft | 44 kts | 249° |
| 2026-04-25 11:21 | 38.92279 | 20.75596 | 24 ft | 42 kts | 249° |
| 2026-04-25 11:21 | 38.92201 | 20.75395 | 20 ft | 20 kts | 216° |
| 2026-04-25 11:21 | 38.92097 | 20.75443 | 22 ft | 14 kts | 118° |
| 2026-04-25 11:22 | 38.92118 | 20.75559 | 21 ft | 13 kts | 67° |
| 2026-04-25 11:22 | 38.92140 | 20.75629 | 23 ft | 12 kts | 68° |
| 2026-04-25 11:22 | 38.92188 | 20.75782 | 20 ft | 17 kts | 68° |
| 2026-04-25 11:22 | 38.92235 | 20.75930 | 19 ft | 19 kts | 68° |
| 2026-04-25 11:23 | 38.92283 | 20.76082 | 19 ft | 18 kts | 68° |
| 2026-04-25 11:23 | 38.92331 | 20.76235 | 18 ft | 19 kts | 68° |
| 2026-04-25 11:23 | 38.92378 | 20.76386 | 18 ft | 18 kts | 67° |
| 2026-04-25 11:23 | 38.92425 | 20.76532 | 18 ft | 18 kts | 68° |
| 2026-04-25 11:24 | 38.92469 | 20.76674 | 19 ft | 16 kts | 68° |
| 2026-04-25 11:24 | 38.92509 | 20.76804 | 20 ft | 15 kts | 68° |
| 2026-04-25 11:24 | 38.92550 | 20.76930 | 19 ft | 15 kts | 67° |
| 2026-04-25 11:24 | 38.92590 | 20.77055 | 20 ft | 15 kts | 69° |
| 2026-04-25 11:25 | 38.92657 | 20.77164 | 18 ft | 15 kts | 356° |
| 2026-04-25 11:25 | 38.92755 | 20.77154 | 17 ft | 15 kts | 34° |
| 2026-04-25 11:25 | 38.92799 | 20.77260 | 17 ft | 13 kts | 68° |
| 2026-04-25 11:25 | 38.92845 | 20.77345 | 17 ft | 12 kts | 17° |
| 2026-04-25 11:26 | 38.92928 | 20.77307 | 18 ft | 12 kts | 319° |
| 2026-04-25 11:26 | 38.92992 | 20.77258 | 19 ft | 8 kts | 339° |
| 2026-04-25 11:26 | 38.93017 | 20.77244 | 19 ft | 1 kts | 338° |
| 2026-04-25 11:26 | 38.93022 | 20.77242 | 20 ft | 1 kts | 338° |
| 2026-04-25 11:27 | 38.93023 | 20.77241 | 19 ft | 0 kts | 338° |